createdAt,value
2023-01-06T00:03:02.470Z,70.73
2023-01-06T00:07:05.875Z,70.72
2023-01-06T00:11:10.196Z,70.93
2023-01-06T00:15:15.391Z,71.14
2023-01-06T00:19:18.425Z,71.42
2023-01-06T00:23:21.425Z,71.62
2023-01-06T00:27:24.599Z,71.75
2023-01-06T00:31:30.127Z,72.03
2023-01-06T00:35:33.546Z,72.08
2023-01-06T00:39:36.747Z,72.03
2023-01-06T00:43:39.837Z,72.19
2023-01-06T00:47:44.680Z,72.48
2023-01-06T00:51:48.013Z,72.55
2023-01-06T00:55:51.248Z,72.64
2023-01-06T00:59:54.777Z,72.62
2023-01-06T01:03:59.218Z,72.58
2023-01-06T01:08:02.213Z,73.04
2023-01-06T01:12:12.533Z,72.62
2023-01-06T01:16:15.648Z,72.54
2023-01-06T01:20:20.311Z,72.62
2023-01-06T01:24:24.013Z,72.61
2023-01-06T01:28:27.058Z,72.82
2023-01-06T01:32:30.058Z,72.54
2023-01-06T01:36:35.863Z,72.49
2023-01-06T01:40:38.891Z,72.24
2023-01-06T01:44:59.494Z,71.78
2023-01-06T01:49:08.011Z,71.66
2023-01-06T01:53:16.834Z,71.28
2023-01-06T01:57:24.825Z,71.02
2023-01-06T02:01:28.310Z,71.23
2023-01-06T02:05:32.222Z,70.72
2023-01-06T02:09:41.509Z,70.96
2023-01-06T02:13:47.551Z,70.44
2023-01-06T02:18:27.011Z,70.99
2023-01-06T02:22:50.758Z,70.53
2023-01-06T02:27:38.881Z,70.73
2023-01-06T02:31:59.370Z,71.25
2023-01-06T02:36:19.104Z,71.18
2023-01-06T02:40:34.857Z,71.39
2023-01-06T02:44:46.714Z,71.55
2023-01-06T02:49:07.430Z,71.29
2023-01-06T02:53:19.584Z,71.49
2023-01-06T02:57:31.232Z,71.33
2023-01-06T03:01:40.821Z,71.10
2023-01-06T03:05:49.315Z,71.40
2023-01-06T03:09:55.162Z,71.27
2023-01-06T03:14:04.122Z,71.06
2023-01-06T03:18:07.737Z,70.93
2023-01-06T03:22:14.212Z,70.22
2023-01-06T03:26:18.085Z,70.05
2023-01-06T03:30:22.788Z,69.94
2023-01-06T03:34:44.644Z,69.55
2023-01-06T03:38:57.512Z,69.38
2023-01-06T03:43:16.492Z,69.41
2023-01-06T03:47:28.560Z,69.30
2023-01-06T03:51:50.242Z,69.34
2023-01-06T03:56:02.526Z,69.46
2023-01-06T04:00:10.364Z,69.41
2023-01-06T04:04:26.914Z,69.56
2023-01-06T04:08:30.232Z,69.73
2023-01-06T04:12:41.828Z,69.81
2023-01-06T04:16:49.771Z,69.73
2023-01-06T04:20:52.914Z,69.94
2023-01-06T04:25:02.100Z,69.90
2023-01-06T04:29:06.888Z,69.71
2023-01-06T04:33:10.496Z,69.93
2023-01-06T04:37:16.768Z,70.23
2023-01-06T04:41:19.880Z,70.15
2023-01-06T04:45:24.404Z,70.43
2023-01-06T04:49:27.525Z,70.74
2023-01-06T04:53:30.627Z,70.83
2023-01-06T04:57:33.660Z,71.10
2023-01-06T05:01:38.198Z,70.95
2023-01-06T05:05:41.269Z,71.17
2023-01-06T05:09:44.321Z,71.48
2023-01-06T05:13:47.473Z,71.98
2023-01-06T05:17:51.889Z,72.05
2023-01-06T05:21:54.925Z,72.12
2023-01-06T05:25:58.021Z,71.86
2023-01-06T05:30:01.040Z,72.23
2023-01-06T05:34:05.465Z,72.23
2023-01-06T05:38:08.830Z,72.42
2023-01-06T05:42:11.838Z,72.30
2023-01-06T05:46:14.986Z,72.76
2023-01-06T05:56:02.362Z,73.07
2023-01-06T06:00:06.609Z,73.23
2023-01-06T06:04:15.136Z,73.29
2023-01-06T06:08:18.274Z,73.38
2023-01-06T06:12:22.640Z,73.89
2023-01-06T06:16:27.545Z,74.41
2023-01-06T06:20:30.866Z,74.73
2023-01-06T06:24:33.908Z,75.23
2023-01-06T06:28:39.540Z,75.50
2023-01-06T06:32:42.968Z,75.93
2023-01-06T06:36:46.206Z,76.14
2023-01-06T06:40:49.413Z,76.27
2023-01-06T06:44:54.142Z,76.25
2023-01-06T06:48:57.158Z,76.25
2023-01-06T06:53:00.446Z,76.24
2023-01-06T06:57:03.645Z,76.46
2023-01-06T07:01:09.584Z,76.77
2023-01-06T07:05:12.688Z,76.93
2023-01-06T07:09:15.717Z,76.92
2023-01-06T07:13:18.947Z,77.23
2023-01-06T07:17:28.597Z,77.25
2023-01-06T07:21:31.614Z,77.14
2023-01-06T07:25:34.660Z,77.28
2023-01-06T07:29:37.755Z,77.27
2023-01-06T07:33:42.136Z,77.29
2023-01-06T07:37:45.631Z,77.40
2023-01-06T07:41:48.691Z,77.43
2023-01-06T07:45:52.443Z,77.44
2023-01-06T07:49:56.956Z,77.49
2023-01-06T07:54:00.003Z,77.14
2023-01-06T07:58:05.926Z,77.17
2023-01-06T08:02:11.805Z,77.32
2023-01-06T08:06:16.225Z,76.86
2023-01-06T08:10:19.360Z,77.01
2023-01-06T08:14:22.875Z,76.72
2023-01-06T08:18:26.088Z,76.85
2023-01-06T08:22:30.526Z,76.88
2023-01-06T08:26:33.733Z,76.63
2023-01-06T08:30:40.118Z,76.44
2023-01-06T08:34:43.751Z,76.33
2023-01-06T08:38:48.571Z,76.55
2023-01-06T08:42:51.663Z,76.98
2023-01-06T08:46:54.788Z,77.05
2023-01-06T08:51:02.658Z,77.07
2023-01-06T08:55:07.550Z,77.01
2023-01-06T08:59:14.931Z,77.07
2023-01-06T09:03:18.119Z,77.05
2023-01-06T09:07:21.284Z,76.83
2023-01-06T09:11:25.794Z,76.89
2023-01-06T09:15:28.872Z,76.93
2023-01-06T09:19:32.080Z,76.65
2023-01-06T09:23:35.332Z,76.38
2023-01-06T09:27:39.839Z,76.36
2023-01-06T09:31:43.048Z,76.27
2023-01-06T09:35:46.837Z,75.89
2023-01-06T09:39:49.886Z,76.05
2023-01-06T09:43:59.720Z,75.86
2023-01-06T09:48:08.161Z,75.78
2023-01-06T09:52:18.602Z,75.89
2023-01-06T09:56:25.620Z,76.03
2023-01-06T10:00:36.563Z,76.11
2023-01-06T10:04:39.712Z,76.09
2023-01-06T10:08:55.962Z,75.63
2023-01-06T10:13:11.865Z,75.95
2023-01-06T10:17:49.674Z,75.62
2023-01-06T10:22:05.266Z,75.76
2023-01-06T10:26:13.731Z,75.42
2023-01-06T10:30:20.927Z,75.96
2023-01-06T10:34:27.572Z,75.62
2023-01-06T10:38:36.391Z,75.81
2023-01-06T10:43:00.212Z,76.17
2023-01-06T10:47:03.771Z,75.76
2023-01-06T10:51:33.890Z,76.08
2023-01-06T10:55:41.913Z,75.92
2023-01-06T11:00:16.471Z,75.74
2023-01-06T11:04:20.089Z,76.23
2023-01-06T11:08:24.589Z,76.06
2023-01-06T11:12:32.300Z,76.02
2023-01-06T11:16:38.056Z,75.75
2023-01-06T11:20:41.618Z,75.96
2023-01-06T11:24:54.246Z,75.52
2023-01-06T11:28:57.620Z,75.68
2023-01-06T11:33:00.725Z,75.58
2023-01-06T11:37:03.948Z,75.69
2023-01-06T11:41:11.987Z,75.54
2023-01-06T11:45:32.063Z,75.97
2023-01-06T11:49:38.325Z,75.43
2023-01-06T11:53:55.396Z,75.46
2023-01-06T11:58:06.263Z,75.87
2023-01-06T12:02:17.164Z,75.66
2023-01-06T12:06:30.467Z,75.52
2023-01-06T12:10:35.374Z,75.86
2023-01-06T12:14:40.807Z,75.67
2023-01-06T12:18:44.488Z,75.95
2023-01-06T12:22:51.148Z,75.75
2023-01-06T12:26:54.934Z,75.91
2023-01-06T12:31:07.602Z,75.70
2023-01-06T12:35:16.508Z,75.94
2023-01-06T12:39:26.485Z,75.87
2023-01-06T12:43:35.034Z,75.65
2023-01-06T12:47:45.636Z,75.48
2023-01-06T12:51:53.281Z,75.30
2023-01-06T12:56:18.243Z,75.38
2023-01-06T13:00:39.490Z,75.47
2023-01-06T13:05:08.432Z,75.46
2023-01-06T13:09:24.427Z,75.52
2023-01-06T13:13:39.622Z,75.51
2023-01-06T13:17:48.286Z,75.79
2023-01-06T13:21:56.815Z,75.76
2023-01-06T13:26:24.930Z,76.15
2023-01-06T13:30:50.928Z,76.00
2023-01-06T13:35:14.546Z,76.08
2023-01-06T13:39:24.476Z,75.82
2023-01-06T13:43:30.953Z,76.37
2023-01-06T13:47:36.811Z,76.25
2023-01-06T13:51:42.522Z,76.34
2023-01-06T13:55:47.540Z,76.28
2023-01-06T13:59:51.650Z,76.43
2023-01-06T14:03:56.509Z,77.94
2023-01-06T14:08:01.760Z,77.15
2023-01-06T14:12:11.507Z,76.71
2023-01-06T14:16:15.300Z,76.04
2023-01-06T14:20:29.111Z,75.57
2023-01-06T14:24:36.082Z,75.25
2023-01-06T14:28:40.600Z,75.19
2023-01-06T14:33:04.703Z,74.58
2023-01-06T14:37:13.540Z,74.55
2023-01-06T14:41:21.735Z,74.60
2023-01-06T14:45:29.264Z,74.26
2023-01-06T14:49:39.396Z,74.38
2023-01-06T14:53:45.041Z,74.40
2023-01-06T14:57:50.523Z,74.86
2023-01-06T15:02:14.841Z,74.88
2023-01-06T15:06:20.986Z,74.62
2023-01-06T15:10:26.710Z,74.60
2023-01-06T15:14:32.937Z,74.45
2023-01-06T15:18:42.990Z,73.97
2023-01-06T15:22:49.302Z,74.15
2023-01-06T15:26:54.872Z,73.87
2023-01-06T15:30:59.044Z,73.90
2023-01-06T15:35:03.708Z,73.67
2023-01-06T15:39:08.141Z,73.57
2023-01-06T15:43:12.299Z,73.36
2023-01-06T15:47:26.382Z,73.59
2023-01-06T15:51:30.967Z,73.44
2023-01-06T15:55:36.824Z,73.73
2023-01-06T15:59:40.757Z,73.42
2023-01-06T16:03:47.750Z,73.95
2023-01-06T16:07:52.206Z,74.11
2023-01-06T16:12:00.261Z,73.93
2023-01-06T16:16:09.852Z,73.99
2023-01-06T16:20:23.907Z,74.25
2023-01-06T16:24:30.224Z,73.99
2023-01-06T16:28:33.805Z,74.08
2023-01-06T16:32:39.569Z,74.16
2023-01-06T16:36:42.688Z,74.03
2023-01-06T16:40:47.812Z,73.98
2023-01-06T16:45:01.099Z,74.05
2023-01-06T16:49:10.800Z,74.30
2023-01-06T16:53:45.050Z,74.77
2023-01-06T16:57:50.956Z,74.66
2023-01-06T17:01:54.113Z,74.93
2023-01-06T17:05:58.051Z,75.03
2023-01-06T17:10:01.187Z,74.81
2023-01-06T17:14:16.827Z,74.88
2023-01-06T17:18:26.374Z,75.23
2023-01-06T17:22:30.784Z,75.59
2023-01-06T17:26:33.812Z,75.80
2023-01-06T17:30:39.992Z,75.83
2023-01-06T17:34:42.954Z,75.61
2023-01-06T17:39:06.556Z,75.91
2023-01-06T17:43:21.782Z,75.94
2023-01-06T17:47:29.976Z,76.13
2023-01-06T17:51:33.077Z,76.19
2023-01-06T17:55:45.406Z,76.20
2023-01-06T17:59:53.165Z,76.27
2023-01-06T18:03:59.991Z,76.19
2023-01-06T18:08:12.288Z,76.31
2023-01-06T18:12:17.897Z,76.61
2023-01-06T18:16:29.790Z,76.79
2023-01-06T18:20:34.196Z,76.36
2023-01-06T18:24:40.160Z,76.43
2023-01-06T18:28:43.640Z,76.13
2023-01-06T18:32:47.052Z,76.14
2023-01-06T18:36:51.532Z,76.24
2023-01-06T18:40:54.881Z,76.17
2023-01-06T18:45:07.137Z,75.67
2023-01-06T18:49:12.166Z,75.56
2023-01-06T18:53:26.178Z,75.28
2023-01-06T18:57:32.372Z,75.29
2023-01-06T19:01:41.326Z,74.88
2023-01-06T19:05:44.769Z,74.95
2023-01-06T19:09:51.080Z,74.97
2023-01-06T19:13:58.976Z,74.98
2023-01-06T19:18:01.953Z,75.08
2023-01-06T19:22:22.550Z,75.04
2023-01-06T19:26:33.548Z,75.12
2023-01-06T19:30:44.525Z,77.37
2023-01-06T19:34:47.600Z,77.94
2023-01-06T19:38:50.834Z,77.41
2023-01-06T19:42:58.598Z,76.82
2023-01-06T19:47:10.180Z,76.27
2023-01-06T19:51:26.027Z,75.75
2023-01-06T19:55:30.654Z,75.40
2023-01-06T19:59:36.655Z,75.59
2023-01-06T20:03:44.243Z,75.25
2023-01-06T20:07:47.371Z,75.52
2023-01-06T20:11:51.392Z,75.44
2023-01-06T20:15:55.709Z,75.15
2023-01-06T20:19:58.606Z,75.69
2023-01-06T20:24:01.565Z,75.02
2023-01-06T20:28:04.661Z,74.99
2023-01-06T20:32:09.190Z,75.45
2023-01-06T20:36:16.908Z,75.00
2023-01-06T20:40:19.969Z,74.93
2023-01-06T20:44:23.000Z,75.07
2023-01-06T20:48:27.245Z,75.15
2023-01-06T20:52:30.183Z,74.79
2023-01-06T20:56:33.238Z,75.13
2023-01-06T21:00:36.830Z,74.57
2023-01-06T21:04:41.073Z,74.67
2023-01-06T21:08:44.029Z,74.91
2023-01-06T21:12:46.942Z,74.93
2023-01-06T21:16:50.158Z,74.99
2023-01-06T21:20:54.484Z,74.78
2023-01-06T21:24:57.428Z,74.46
2023-01-06T21:29:00.376Z,74.79
2023-01-06T21:33:03.441Z,74.80
2023-01-06T21:37:07.922Z,74.72
2023-01-06T21:41:28.564Z,75.06
2023-01-06T21:45:31.530Z,75.01
2023-01-06T21:49:34.703Z,75.05
2023-01-06T21:53:39.236Z,75.15
2023-01-06T21:57:42.872Z,75.15
2023-01-06T22:01:45.999Z,75.18
2023-01-06T22:05:49.024Z,75.39
2023-01-06T22:09:54.255Z,75.54
2023-01-06T22:13:57.558Z,75.51
2023-01-06T22:18:01.574Z,75.57
2023-01-06T22:22:05.079Z,75.46
2023-01-06T22:26:09.416Z,75.86
2023-01-06T22:30:12.985Z,75.55
2023-01-06T22:34:17.392Z,75.31
2023-01-06T22:38:20.375Z,75.23
2023-01-06T22:42:24.700Z,75.62
2023-01-06T22:46:28.022Z,75.67
2023-01-06T22:50:31.119Z,75.63
2023-01-06T22:54:34.045Z,75.69
2023-01-06T22:58:39.952Z,76.09
2023-01-06T23:02:43.408Z,75.84
2023-01-06T23:06:46.580Z,75.89
2023-01-06T23:10:49.498Z,75.68
2023-01-06T23:14:53.828Z,75.89
2023-01-06T23:18:56.940Z,75.80
2023-01-06T23:22:59.869Z,75.58
2023-01-06T23:27:02.820Z,75.76
2023-01-06T23:31:09.098Z,76.09
2023-01-06T23:35:12.046Z,75.82
2023-01-06T23:39:16.930Z,75.84
2023-01-06T23:43:19.986Z,75.92
2023-01-06T23:47:24.256Z,76.23
2023-01-06T23:51:30.155Z,76.17
2023-01-06T23:55:33.132Z,75.96
2023-01-06T23:59:36.035Z,76.12
